• Join FlightAware (Why Join?)
  • Login
  • US Flag 
03:09PM EDT


 

Airport Tracker/Info


-or-


 

Live Flight TrackerFlight Track Log ✈ SWA1618 ✈ 29-Jun-2013 ✈ KALB - KMDW

Flight Track Log - Related Links

Times and Time Zones

All times are in EDT time to prevent confusion due to time zone crossing. See the SWA1618 flight status page for this flight to view local times or setup timezone preferences in your user account.

Time Position Orientation Groundspeed Altitude Reporting Facility
EDT Latitude Longitude Course Direction KTS MPH feet Rate Location/Type
06:51AM 42.7297 -73.8081 206° Southwest 143 165 1,200  Level Boston Center
06:51AM 42.6919 -73.8328 206° Southwest 201 231 2,700 1,800 Climbing Boston Center
06:53AM 42.7450 -73.9186 310° West 263 303 5,500 2,520 Climbing Boston Center
06:55AM 42.8744 -74.0606 321° Northwest 300 345 11,500 3,120 Climbing Boston Center
06:56AM 42.9606 -74.1564 321° Northwest 352 405 14,900 3,060 Climbing Boston Center
06:57AM 42.9797 -74.2733 283° West 346 398 17,700 2,700 Climbing Boston Center
06:58AM 42.9981 -74.4131 280° West 357 411 20,400 2,520 Climbing Boston Center
06:59AM 43.0100 -74.5611 276° West 377 434 22,800 2,280 Climbing Boston Center
07:00AM 43.0175 -74.7147 274° West 397 457 25,000 1,860 Climbing Boston Center
07:01AM 43.0100 -74.8706 266° West 409 471 26,900 1,860 Climbing Boston Center
07:02AM 42.9992 -75.0803 266° West 422 486 29,200 2,340 Climbing Boston Center
07:03AM 42.9911 -75.2447 266° West 427 491 31,600 2,340 Climbing Boston Center
07:04AM 42.9872 -75.4006 268° West 422 486 33,900 1,860 Climbing Boston Center
07:05AM 42.9769 -75.5506 265° West 416 479 35,400 1,200 Climbing Boston Center
07:06AM 42.9686 -75.7033 266° West 411 473 36,300 780 Climbing Boston Center
07:07AM 42.9617 -75.8619 267° West 411 473 37,000 540 Climbing Boston Center
07:09AM 42.9433 -76.1836 266° West 424 488 38,000 300 Climbing Cleveland Center
07:10AM 42.9344 -76.3375 266° West 424 488 38,000  Level Cleveland Center
07:11AM 42.9258 -76.4997 266° West 424 488 38,000  Level Cleveland Center
07:12AM 42.9144 -76.6564 264° West 424 488 38,000  Level Cleveland Center
07:13AM 42.9056 -76.8272 266° West 424 488 38,000  Level Cleveland Center
07:14AM 42.8961 -76.9867 265° West 424 488 38,000  Level Cleveland Center
07:15AM 42.8611 -77.1386 253° West 424 488 38,000  Level Cleveland Center
07:16AM 42.8133 -77.2828 246° West 424 488 38,000  Level Cleveland Center
07:17AM 42.7672 -77.4267 246° West 424 488 38,000  Level Cleveland Center
07:18AM 42.7267 -77.5475 245° Southwest 424 488 38,000  Level Cleveland Center
07:19AM 42.6725 -77.7111 246° West 430 495 38,000  Level Cleveland Center
07:20AM 42.6181 -77.8772 246° West 430 495 38,000  Level Cleveland Center
07:21AM 42.5733 -78.0089 245° Southwest 430 495 38,000  Level Cleveland Center
07:22AM 42.5242 -78.1547 245° Southwest 430 495 38,000  Level Cleveland Center
07:23AM 42.4753 -78.3003 246° West 430 495 38,000  Level Cleveland Center
07:24AM 42.4258 -78.4453 245° Southwest 430 495 38,000  Level Cleveland Center
07:25AM 42.3764 -78.5931 246° West 430 495 38,000  Level Cleveland Center
07:26AM 42.3244 -78.7381 244° Southwest 430 495 38,000  Level Cleveland Center
07:27AM 42.2728 -78.8856 245° Southwest 430 495 38,000  Level Cleveland Center
07:28AM 42.2144 -79.0469 244° Southwest 430 495 38,000  Level Cleveland Center
07:29AM 42.1725 -79.1881 248° West 435 501 38,000  Level Cleveland Center
07:30AM 42.1367 -79.3344 252° West 435 501 38,000  Level Cleveland Center
07:31AM 42.0922 -79.4892 249° West 435 501 38,000  Level Cleveland Center
07:32AM 42.0561 -79.6408 252° West 435 501 38,000  Level Cleveland Center
07:33AM 42.0156 -79.7950 251° West 435 501 38,000  Level Cleveland Center
07:34AM 41.9750 -79.9436 250° West 435 501 38,000  Level Cleveland Center
07:35AM 41.9297 -80.1086 250° West 429 494 38,000  Level Cleveland Center
07:36AM 41.8886 -80.2567 250° West 429 494 38,000  Level Cleveland Center
07:37AM 41.8494 -80.4103 251° West 429 494 38,000  Level Cleveland Center
07:38AM 41.8078 -80.5608 250° West 429 494 38,000  Level Cleveland Center
07:39AM 41.7661 -80.7139 250° West 439 505 38,000  Level Cleveland Center
07:40AM 41.7242 -80.8642 250° West 439 505 38,000  Level Cleveland Center
07:41AM 41.7028 -81.0197 260° West 427 491 38,000  Level Cleveland Center
07:42AM 41.6936 -81.1756 266° West 427 491 38,000  Level Cleveland Center
07:43AM 41.6886 -81.3367 268° West 427 491 38,000  Level Cleveland Center
07:44AM 41.6811 -81.4922 266° West 427 491 38,000  Level Cleveland Center
07:45AM 41.6714 -81.6533 265° West 427 491 38,000  Level Cleveland Center
07:46AM 41.6636 -81.8117 266° West 432 497 38,000  Level Cleveland Center
07:47AM 41.6556 -81.9728 266° West 437 503 38,000  Level Cleveland Center
07:48AM 41.6472 -82.1336 266° West 442 509 38,000  Level Cleveland Center
07:49AM 41.6389 -82.2781 266° West 442 509 38,000  Level Cleveland Center
07:50AM 41.6281 -82.4361 265° West 442 509 38,000  Level Cleveland Center
07:51AM 41.6192 -82.5942 266° West 442 509 38,000  Level Cleveland Center
07:52AM 41.6100 -82.7522 266° West 437 503 38,000  Level Cleveland Center
07:53AM 41.6008 -82.9072 266° West 437 503 38,000  Level Cleveland Center
07:54AM 41.5911 -83.0708 266° West 437 503 38,000  Level Cleveland Center
07:55AM 41.5772 -83.2258 263° West 437 503 38,000  Level Cleveland Center
07:56AM 41.5672 -83.3808 265° West 432 497 38,000  Level Cleveland Center
07:57AM 41.5569 -83.5386 265° West 432 497 38,000  Level Cleveland Center
07:58AM 41.5467 -83.6961 265° West 432 497 38,000  Level Cleveland Center
07:59AM 41.5381 -83.8511 266° West 426 490 38,000  Level Cleveland Center
08:00AM 41.5294 -83.9967 266° West 423 487 38,000 -720 Level Chicago Center
08:01AM 41.5181 -84.1497 264° West 417 480 36,700 -1,800 Descending Chicago Center
08:02AM 41.5067 -84.3017 264° West 413 475 34,400 -2,160 Descending Chicago Center
08:03AM 41.4944 -84.4572 264° West 420 483 32,400 -1,980 Descending Chicago Center
08:04AM 41.4833 -84.6083 264° West 413 475 30,400 -1,200 Descending Chicago Center
08:05AM 41.4850 -84.7550 271° West 400 460 30,000 -240 Descending Chicago Center
08:06AM 41.4903 -84.9064 273° West 406 467 30,000 -240 Level Chicago Center
08:07AM 41.4953 -85.0572 273° West 407 468 29,600 -1,200 Descending Chicago Center
08:08AM 41.5006 -85.2139 273° West 418 481 27,600 -2,580 Descending Chicago Center
08:09AM 41.5042 -85.3739 272° West 423 487 24,400 -2,640 Descending Chicago Center
08:10AM 41.5100 -85.5350 273° West 413 475 22,300 -1,620 Descending Chicago Center
08:11AM 41.5164 -85.7192 273° West 411 473 21,200 -1,200 Descending Chicago Center
08:12AM 41.5206 -85.8697 272° West 407 468 19,900 -1,920 Descending Chicago Center
08:13AM 41.5211 -86.0147 270° West 393 452 17,300 -2,460 Descending Chicago Center
08:14AM 41.5217 -86.1569 270° West 385 443 14,900 -2,400 Descending Chicago Center
08:15AM 41.5219 -86.2939 270° West 370 426 12,500 -2,100 Descending Chicago Center
08:16AM 41.5228 -86.4267 271° West 359 413 10,700 -1,260 Descending Chicago Center
08:17AM 41.5214 -86.5556 269° West 351 404 10,000 -360 Descending Chicago Center
08:19AM 41.5197 -86.6806 269° West 341 392 10,000  Level Chicago Center
08:20AM 41.5206 -86.8122 271° West 326 375 10,000 -480 Level Chicago Center
08:21AM 41.5186 -86.9172 269° West 289 333 9,100 -1,140 Descending Chicago Center
08:22AM 41.5172 -87.0192 269° West 277 319 7,700 -1,260 Descending Chicago Center
08:23AM 41.5244 -87.1189 276° West 273 314 6,600 -840 Descending Chicago Center
08:24AM 41.5525 -87.2297 289° West 266 306 6,000 -540 Descending Chicago Center
08:25AM 41.5744 -87.3192 288° West 259 298 5,600 -540 Descending Chicago Center
08:26AM 41.5956 -87.4092 287° West 258 297 5,000 -300 Descending Chicago Center
08:27AM 41.6172 -87.4978 288° West 255 293 5,000 -180 Level Chicago Center
08:28AM 41.6519 -87.5667 304° West 228 262 4,700 -660 Descending Chicago Center
08:29AM 41.6881 -87.6158 315° West 201 231 3,700 -1,260 Descending Chicago Center
08:30AM 41.7267 -87.6706 313° West 183 211 2,200 -1,140 Descending Chicago Center
08:31AM 41.7522 -87.7067 313° West 161 185 1,400 -660 Descending Chicago Center
08:32AM 41.7775 -87.7417 314° West 142 163 900 -540 Descending Chicago Center
08:34AM 41.7833 -87.7500 334° Northwest  Level FlightAware Approximate